sensor_id;sensor_type;location;lat;lon;timestamp;P1;durP1;ratioP1;P2;durP2;ratioP2
55813;SDS011;41743;43.012;-0.110;2022-07-23T00:00:59;1.77;;;0.77;;
55813;SDS011;41743;43.012;-0.110;2022-07-23T00:03:25;2.33;;;1.00;;
55813;SDS011;41743;43.012;-0.110;2022-07-23T00:05:51;1.58;;;0.82;;
55813;SDS011;41743;43.012;-0.110;2022-07-23T00:08:18;2.15;;;0.60;;
55813;SDS011;41743;43.012;-0.110;2022-07-23T00:10:44;4.72;;;0.90;;
55813;SDS011;41743;43.012;-0.110;2022-07-23T00:13:10;1.85;;;0.90;;
55813;SDS011;41743;43.012;-0.110;2022-07-23T00:15:39;0.60;;;0.55;;
55813;SDS011;41743;43.012;-0.110;2022-07-23T00:18:05;1.52;;;0.80;;
55813;SDS011;41743;43.012;-0.110;2022-07-23T00:20:31;3.10;;;0.85;;
55813;SDS011;41743;43.012;-0.110;2022-07-23T00:22:57;1.30;;;0.70;;
55813;SDS011;41743;43.012;-0.110;2022-07-23T00:25:24;1.35;;;0.77;;
55813;SDS011;41743;43.012;-0.110;2022-07-23T00:27:50;1.20;;;0.85;;
55813;SDS011;41743;43.012;-0.110;2022-07-23T00:30:16;1.33;;;0.80;;
55813;SDS011;41743;43.012;-0.110;2022-07-23T00:32:50;1.23;;;0.70;;
55813;SDS011;41743;43.012;-0.110;2022-07-23T00:35:16;4.07;;;0.90;;
55813;SDS011;41743;43.012;-0.110;2022-07-23T00:37:45;1.25;;;0.90;;
55813;SDS011;41743;43.012;-0.110;2022-07-23T00:40:11;1.83;;;0.95;;
55813;SDS011;41743;43.012;-0.110;2022-07-23T00:42:37;2.75;;;0.95;;
55813;SDS011;41743;43.012;-0.110;2022-07-23T00:45:03;1.75;;;0.88;;
55813;SDS011;41743;43.012;-0.110;2022-07-23T00:47:30;1.67;;;1.00;;
55813;SDS011;41743;43.012;-0.110;2022-07-23T00:49:56;1.88;;;0.82;;
55813;SDS011;41743;43.012;-0.110;2022-07-23T00:52:22;2.20;;;1.02;;
55813;SDS011;41743;43.012;-0.110;2022-07-23T00:54:48;1.80;;;0.90;;
55813;SDS011;41743;43.012;-0.110;2022-07-23T00:57:15;2.63;;;0.85;;
55813;SDS011;41743;43.012;-0.110;2022-07-23T00:59:41;1.65;;;1.13;;
55813;SDS011;41743;43.012;-0.110;2022-07-23T01:02:07;1.15;;;1.00;;
55813;SDS011;41743;43.012;-0.110;2022-07-23T01:04:33;2.10;;;1.00;;
55813;SDS011;41743;43.012;-0.110;2022-07-23T01:07:00;2.38;;;0.80;;
55813;SDS011;41743;43.012;-0.110;2022-07-23T01:09:26;1.92;;;0.93;;
55813;SDS011;41743;43.012;-0.110;2022-07-23T01:11:58;2.10;;;0.90;;
55813;SDS011;41743;43.012;-0.110;2022-07-23T01:14:38;1.90;;;1.00;;
55813;SDS011;41743;43.012;-0.110;2022-07-23T01:17:10;1.75;;;0.90;;
55813;SDS011;41743;43.012;-0.110;2022-07-23T01:19:43;3.50;;;1.13;;
55813;SDS011;41743;43.012;-0.110;2022-07-23T01:22:18;2.80;;;0.90;;
55813;SDS011;41743;43.012;-0.110;2022-07-23T01:24:51;1.48;;;0.90;;
55813;SDS011;41743;43.012;-0.110;2022-07-23T01:27:30;2.05;;;1.10;;
55813;SDS011;41743;43.012;-0.110;2022-07-23T01:30:03;1.55;;;1.00;;
55813;SDS011;41743;43.012;-0.110;2022-07-23T01:32:30;2.53;;;1.10;;
55813;SDS011;41743;43.012;-0.110;2022-07-23T01:35:01;2.33;;;1.05;;
55813;SDS011;41743;43.012;-0.110;2022-07-23T01:37:27;2.63;;;1.25;;
55813;SDS011;41743;43.012;-0.110;2022-07-23T01:39:53;3.85;;;1.15;;
55813;SDS011;41743;43.012;-0.110;2022-07-23T01:42:19;2.67;;;1.10;;
55813;SDS011;41743;43.012;-0.110;2022-07-23T01:44:45;2.50;;;1.00;;
55813;SDS011;41743;43.012;-0.110;2022-07-23T01:47:11;1.42;;;0.93;;
55813;SDS011;41743;43.012;-0.110;2022-07-23T01:49:37;3.75;;;1.10;;
55813;SDS011;41743;43.012;-0.110;2022-07-23T01:52:04;2.92;;;1.00;;
55813;SDS011;41743;43.012;-0.110;2022-07-23T01:54:34;2.42;;;1.20;;
55813;SDS011;41743;43.012;-0.110;2022-07-23T01:57:00;2.03;;;1.10;;
55813;SDS011;41743;43.012;-0.110;2022-07-23T01:59:27;3.08;;;1.35;;
55813;SDS011;41743;43.012;-0.110;2022-07-23T02:01:53;2.40;;;1.08;;
55813;SDS011;41743;43.012;-0.110;2022-07-23T02:04:20;2.20;;;1.00;;
55813;SDS011;41743;43.012;-0.110;2022-07-23T02:06:46;4.80;;;1.33;;
55813;SDS011;41743;43.012;-0.110;2022-07-23T02:09:13;3.97;;;1.50;;
55813;SDS011;41743;43.012;-0.110;2022-07-23T02:11:39;4.22;;;1.27;;
55813;SDS011;41743;43.012;-0.110;2022-07-23T02:14:05;2.03;;;1.30;;
55813;SDS011;41743;43.012;-0.110;2022-07-23T02:16:32;2.67;;;1.38;;
55813;SDS011;41743;43.012;-0.110;2022-07-23T02:18:58;4.88;;;1.40;;
55813;SDS011;41743;43.012;-0.110;2022-07-23T02:21:24;2.75;;;1.25;;
55813;SDS011;41743;43.012;-0.110;2022-07-23T02:23:50;2.13;;;1.23;;
55813;SDS011;41743;43.012;-0.110;2022-07-23T02:26:16;2.22;;;1.23;;
55813;SDS011;41743;43.012;-0.110;2022-07-23T02:28:42;3.05;;;1.23;;
55813;SDS011;41743;43.012;-0.110;2022-07-23T02:31:08;6.10;;;1.40;;
55813;SDS011;41743;43.012;-0.110;2022-07-23T02:33:34;2.78;;;1.55;;
55813;SDS011;41743;43.012;-0.110;2022-07-23T02:36:00;2.38;;;1.20;;
55813;SDS011;41743;43.012;-0.110;2022-07-23T02:38:26;2.30;;;1.23;;
55813;SDS011;41743;43.012;-0.110;2022-07-23T02:40:53;1.90;;;1.20;;
55813;SDS011;41743;43.012;-0.110;2022-07-23T02:43:19;2.00;;;1.23;;
55813;SDS011;41743;43.012;-0.110;2022-07-23T02:45:45;3.65;;;1.45;;
55813;SDS011;41743;43.012;-0.110;2022-07-23T02:48:11;3.72;;;1.63;;
55813;SDS011;41743;43.012;-0.110;2022-07-23T02:50:40;5.30;;;1.98;;
55813;SDS011;41743;43.012;-0.110;2022-07-23T02:53:06;5.55;;;1.98;;
55813;SDS011;41743;43.012;-0.110;2022-07-23T02:55:32;4.03;;;1.88;;
55813;SDS011;41743;43.012;-0.110;2022-07-23T02:57:58;3.28;;;1.90;;
55813;SDS011;41743;43.012;-0.110;2022-07-23T03:00:24;5.80;;;2.25;;
55813;SDS011;41743;43.012;-0.110;2022-07-23T03:02:50;5.88;;;2.47;;
55813;SDS011;41743;43.012;-0.110;2022-07-23T03:05:16;4.82;;;2.47;;
55813;SDS011;41743;43.012;-0.110;2022-07-23T03:07:42;7.15;;;2.78;;
55813;SDS011;41743;43.012;-0.110;2022-07-23T03:10:09;4.85;;;2.50;;
55813;SDS011;41743;43.012;-0.110;2022-07-23T03:12:35;6.13;;;2.70;;
55813;SDS011;41743;43.012;-0.110;2022-07-23T03:15:01;6.60;;;2.70;;
55813;SDS011;41743;43.012;-0.110;2022-07-23T03:17:27;7.35;;;2.47;;
55813;SDS011;41743;43.012;-0.110;2022-07-23T03:19:53;7.43;;;2.47;;
55813;SDS011;41743;43.012;-0.110;2022-07-23T03:22:19;6.13;;;2.95;;
55813;SDS011;41743;43.012;-0.110;2022-07-23T03:24:45;6.75;;;2.75;;
55813;SDS011;41743;43.012;-0.110;2022-07-23T03:27:20;6.80;;;2.67;;
55813;SDS011;41743;43.012;-0.110;2022-07-23T03:29:47;5.22;;;2.60;;
55813;SDS011;41743;43.012;-0.110;2022-07-23T03:32:13;7.43;;;2.70;;
55813;SDS011;41743;43.012;-0.110;2022-07-23T03:34:39;6.32;;;2.50;;
55813;SDS011;41743;43.012;-0.110;2022-07-23T03:37:05;5.32;;;2.60;;
55813;SDS011;41743;43.012;-0.110;2022-07-23T03:39:31;6.78;;;2.58;;
55813;SDS011;41743;43.012;-0.110;2022-07-23T03:41:57;6.53;;;2.90;;
55813;SDS011;41743;43.012;-0.110;2022-07-23T03:44:23;6.85;;;3.05;;
55813;SDS011;41743;43.012;-0.110;2022-07-23T03:46:49;8.90;;;3.83;;
55813;SDS011;41743;43.012;-0.110;2022-07-23T03:49:15;7.40;;;2.95;;
55813;SDS011;41743;43.012;-0.110;2022-07-23T03:51:41;6.70;;;3.20;;
55813;SDS011;41743;43.012;-0.110;2022-07-23T03:54:08;6.25;;;2.97;;
55813;SDS011;41743;43.012;-0.110;2022-07-23T03:56:34;6.50;;;3.28;;
55813;SDS011;41743;43.012;-0.110;2022-07-23T03:59:00;6.22;;;2.92;;
55813;SDS011;41743;43.012;-0.110;2022-07-23T04:01:26;6.13;;;3.00;;
55813;SDS011;41743;43.012;-0.110;2022-07-23T04:03:53;6.38;;;3.17;;
55813;SDS011;41743;43.012;-0.110;2022-07-23T04:06:19;5.15;;;2.78;;
55813;SDS011;41743;43.012;-0.110;2022-07-23T04:08:45;5.20;;;2.63;;
55813;SDS011;41743;43.012;-0.110;2022-07-23T04:11:11;3.92;;;2.42;;
55813;SDS011;41743;43.012;-0.110;2022-07-23T04:13:37;3.53;;;2.13;;
55813;SDS011;41743;43.012;-0.110;2022-07-23T04:16:03;4.60;;;2.50;;
55813;SDS011;41743;43.012;-0.110;2022-07-23T04:18:29;5.55;;;2.30;;
55813;SDS011;41743;43.012;-0.110;2022-07-23T04:20:55;4.47;;;2.42;;
55813;SDS011;41743;43.012;-0.110;2022-07-23T04:23:22;4.28;;;2.30;;
55813;SDS011;41743;43.012;-0.110;2022-07-23T04:25:48;3.80;;;2.00;;
55813;SDS011;41743;43.012;-0.110;2022-07-23T04:28:14;4.03;;;2.17;;
55813;SDS011;41743;43.012;-0.110;2022-07-23T04:30:40;4.90;;;2.00;;
55813;SDS011;41743;43.012;-0.110;2022-07-23T04:33:06;5.15;;;2.00;;
55813;SDS011;41743;43.012;-0.110;2022-07-23T04:35:33;3.47;;;2.10;;
55813;SDS011;41743;43.012;-0.110;2022-07-23T04:37:59;4.20;;;2.08;;
55813;SDS011;41743;43.012;-0.110;2022-07-23T04:40:25;4.45;;;1.85;;
55813;SDS011;41743;43.012;-0.110;2022-07-23T04:42:51;3.63;;;1.80;;
55813;SDS011;41743;43.012;-0.110;2022-07-23T04:45:17;3.17;;;2.00;;
55813;SDS011;41743;43.012;-0.110;2022-07-23T04:47:43;2.00;;;1.35;;
55813;SDS011;41743;43.012;-0.110;2022-07-23T04:50:10;3.67;;;1.60;;
55813;SDS011;41743;43.012;-0.110;2022-07-23T04:52:36;3.55;;;1.65;;
55813;SDS011;41743;43.012;-0.110;2022-07-23T04:55:02;3.05;;;1.67;;
55813;SDS011;41743;43.012;-0.110;2022-07-23T04:57:29;2.00;;;1.42;;
55813;SDS011;41743;43.012;-0.110;2022-07-23T04:59:55;1.70;;;1.30;;
55813;SDS011;41743;43.012;-0.110;2022-07-23T05:02:21;3.35;;;1.52;;
55813;SDS011;41743;43.012;-0.110;2022-07-23T05:04:47;2.45;;;1.48;;
55813;SDS011;41743;43.012;-0.110;2022-07-23T05:07:13;1.95;;;1.30;;
55813;SDS011;41743;43.012;-0.110;2022-07-23T05:09:39;3.80;;;1.30;;
55813;SDS011;41743;43.012;-0.110;2022-07-23T05:12:05;3.50;;;1.58;;
55813;SDS011;41743;43.012;-0.110;2022-07-23T05:14:31;3.85;;;1.45;;
55813;SDS011;41743;43.012;-0.110;2022-07-23T05:16:57;2.03;;;1.30;;
55813;SDS011;41743;43.012;-0.110;2022-07-23T05:19:23;3.50;;;1.50;;
55813;SDS011;41743;43.012;-0.110;2022-07-23T05:21:49;1.98;;;1.40;;
55813;SDS011;41743;43.012;-0.110;2022-07-23T05:24:15;2.53;;;1.40;;
55813;SDS011;41743;43.012;-0.110;2022-07-23T05:26:41;2.28;;;1.40;;
55813;SDS011;41743;43.012;-0.110;2022-07-23T05:29:07;2.58;;;1.10;;
55813;SDS011;41743;43.012;-0.110;2022-07-23T05:31:34;2.35;;;1.20;;
55813;SDS011;41743;43.012;-0.110;2022-07-23T05:34:00;1.88;;;1.30;;
55813;SDS011;41743;43.012;-0.110;2022-07-23T05:36:26;2.10;;;1.40;;
55813;SDS011;41743;43.012;-0.110;2022-07-23T05:38:52;3.35;;;1.42;;
55813;SDS011;41743;43.012;-0.110;2022-07-23T05:41:18;3.63;;;1.40;;
55813;SDS011;41743;43.012;-0.110;2022-07-23T05:43:44;2.00;;;1.20;;
55813;SDS011;41743;43.012;-0.110;2022-07-23T05:46:10;2.53;;;1.25;;
55813;SDS011;41743;43.012;-0.110;2022-07-23T05:48:36;2.50;;;1.20;;
55813;SDS011;41743;43.012;-0.110;2022-07-23T05:51:02;2.80;;;1.10;;
55813;SDS011;41743;43.012;-0.110;2022-07-23T05:53:31;3.63;;;1.63;;
55813;SDS011;41743;43.012;-0.110;2022-07-23T05:55:57;2.05;;;1.23;;
55813;SDS011;41743;43.012;-0.110;2022-07-23T05:58:23;3.10;;;1.27;;
55813;SDS011;41743;43.012;-0.110;2022-07-23T06:00:49;2.40;;;1.20;;
55813;SDS011;41743;43.012;-0.110;2022-07-23T06:03:15;3.47;;;1.30;;
55813;SDS011;41743;43.012;-0.110;2022-07-23T06:05:41;3.20;;;1.35;;
55813;SDS011;41743;43.012;-0.110;2022-07-23T06:08:08;2.75;;;1.20;;
55813;SDS011;41743;43.012;-0.110;2022-07-23T06:10:34;2.17;;;1.10;;
55813;SDS011;41743;43.012;-0.110;2022-07-23T06:13:00;2.92;;;1.40;;
55813;SDS011;41743;43.012;-0.110;2022-07-23T06:15:26;1.80;;;1.30;;
55813;SDS011;41743;43.012;-0.110;2022-07-23T06:17:52;2.22;;;1.02;;
55813;SDS011;41743;43.012;-0.110;2022-07-23T06:20:18;1.77;;;1.08;;
55813;SDS011;41743;43.012;-0.110;2022-07-23T06:22:44;2.05;;;1.05;;
55813;SDS011;41743;43.012;-0.110;2022-07-23T06:25:10;1.52;;;0.82;;
55813;SDS011;41743;43.012;-0.110;2022-07-23T06:27:36;1.67;;;1.10;;
55813;SDS011;41743;43.012;-0.110;2022-07-23T06:30:02;2.38;;;1.00;;
55813;SDS011;41743;43.012;-0.110;2022-07-23T06:32:28;1.45;;;0.98;;
55813;SDS011;41743;43.012;-0.110;2022-07-23T06:34:55;1.98;;;1.00;;
55813;SDS011;41743;43.012;-0.110;2022-07-23T06:37:21;2.63;;;1.30;;
55813;SDS011;41743;43.012;-0.110;2022-07-23T06:39:47;1.95;;;0.88;;
55813;SDS011;41743;43.012;-0.110;2022-07-23T06:42:13;1.90;;;0.82;;
55813;SDS011;41743;43.012;-0.110;2022-07-23T06:44:40;1.38;;;0.80;;
55813;SDS011;41743;43.012;-0.110;2022-07-23T06:47:06;1.00;;;0.80;;
55813;SDS011;41743;43.012;-0.110;2022-07-23T06:49:32;1.20;;;0.70;;
55813;SDS011;41743;43.012;-0.110;2022-07-23T06:51:58;1.40;;;0.80;;
55813;SDS011;41743;43.012;-0.110;2022-07-23T06:54:25;1.60;;;0.80;;
55813;SDS011;41743;43.012;-0.110;2022-07-23T06:56:51;1.10;;;0.68;;
55813;SDS011;41743;43.012;-0.110;2022-07-23T06:59:17;1.45;;;0.90;;
55813;SDS011;41743;43.012;-0.110;2022-07-23T07:01:44;3.45;;;0.70;;
55813;SDS011;41743;43.012;-0.110;2022-07-23T07:04:10;2.75;;;0.70;;
55813;SDS011;41743;43.012;-0.110;2022-07-23T07:06:36;0.52;;;0.52;;
55813;SDS011;41743;43.012;-0.110;2022-07-23T07:09:02;1.35;;;0.60;;
55813;SDS011;41743;43.012;-0.110;2022-07-23T07:11:28;0.77;;;0.60;;
55813;SDS011;41743;43.012;-0.110;2022-07-23T07:13:54;1.55;;;0.50;;
55813;SDS011;41743;43.012;-0.110;2022-07-23T07:16:20;0.57;;;0.40;;
55813;SDS011;41743;43.012;-0.110;2022-07-23T07:18:46;0.73;;;0.60;;
55813;SDS011;41743;43.012;-0.110;2022-07-23T07:21:12;0.50;;;0.40;;
55813;SDS011;41743;43.012;-0.110;2022-07-23T07:23:38;1.92;;;0.43;;
55813;SDS011;41743;43.012;-0.110;2022-07-23T07:26:04;0.50;;;0.40;;
55813;SDS011;41743;43.012;-0.110;2022-07-23T07:28:31;1.58;;;0.30;;
55813;SDS011;41743;43.012;-0.110;2022-07-23T07:30:57;1.80;;;0.40;;
55813;SDS011;41743;43.012;-0.110;2022-07-23T07:33:23;0.32;;;0.30;;
55813;SDS011;41743;43.012;-0.110;2022-07-23T07:35:49;4.22;;;0.70;;
55813;SDS011;41743;43.012;-0.110;2022-07-23T07:38:15;0.38;;;0.38;;
55813;SDS011;41743;43.012;-0.110;2022-07-23T07:40:41;0.30;;;0.30;;
55813;SDS011;41743;43.012;-0.110;2022-07-23T07:43:07;0.55;;;0.40;;
55813;SDS011;41743;43.012;-0.110;2022-07-23T07:45:33;0.30;;;0.30;;
55813;SDS011;41743;43.012;-0.110;2022-07-23T07:47:59;0.40;;;0.30;;
55813;SDS011;41743;43.012;-0.110;2022-07-23T07:50:25;0.40;;;0.40;;
55813;SDS011;41743;43.012;-0.110;2022-07-23T07:52:51;0.45;;;0.30;;
55813;SDS011;41743;43.012;-0.110;2022-07-23T07:55:18;0.60;;;0.50;;
55813;SDS011;41743;43.012;-0.110;2022-07-23T07:57:44;0.60;;;0.30;;
55813;SDS011;41743;43.012;-0.110;2022-07-23T08:00:10;0.47;;;0.35;;
55813;SDS011;41743;43.012;-0.110;2022-07-23T08:02:41;0.57;;;0.30;;
55813;SDS011;41743;43.012;-0.110;2022-07-23T08:05:07;1.33;;;0.50;;
55813;SDS011;41743;43.012;-0.110;2022-07-23T08:07:33;0.75;;;0.40;;
55813;SDS011;41743;43.012;-0.110;2022-07-23T08:10:02;0.85;;;0.40;;
55813;SDS011;41743;43.012;-0.110;2022-07-23T08:12:28;1.92;;;0.68;;
55813;SDS011;41743;43.012;-0.110;2022-07-23T08:15:03;0.30;;;0.30;;
55813;SDS011;41743;43.012;-0.110;2022-07-23T08:17:29;0.63;;;0.40;;
55813;SDS011;41743;43.012;-0.110;2022-07-23T08:19:55;0.45;;;0.45;;
55813;SDS011;41743;43.012;-0.110;2022-07-23T08:22:21;1.17;;;0.30;;
55813;SDS011;41743;43.012;-0.110;2022-07-23T08:24:47;2.40;;;0.50;;
55813;SDS011;41743;43.012;-0.110;2022-07-23T08:27:13;0.77;;;0.52;;
55813;SDS011;41743;43.012;-0.110;2022-07-23T08:29:39;0.50;;;0.40;;
55813;SDS011;41743;43.012;-0.110;2022-07-23T08:32:05;2.33;;;0.25;;
55813;SDS011;41743;43.012;-0.110;2022-07-23T08:34:31;1.05;;;0.43;;
55813;SDS011;41743;43.012;-0.110;2022-07-23T08:36:58;1.05;;;0.38;;
55813;SDS011;41743;43.012;-0.110;2022-07-23T08:39:30;0.60;;;0.47;;
55813;SDS011;41743;43.012;-0.110;2022-07-23T08:42:06;0.47;;;0.47;;
55813;SDS011;41743;43.012;-0.110;2022-07-23T08:44:33;0.55;;;0.38;;
55813;SDS011;41743;43.012;-0.110;2022-07-23T08:46:59;0.60;;;0.30;;
55813;SDS011;41743;43.012;-0.110;2022-07-23T08:49:26;0.63;;;0.40;;
55813;SDS011;41743;43.012;-0.110;2022-07-23T08:51:52;0.45;;;0.45;;
55813;SDS011;41743;43.012;-0.110;2022-07-23T08:54:18;0.30;;;0.30;;
55813;SDS011;41743;43.012;-0.110;2022-07-23T08:56:44;0.50;;;0.30;;
55813;SDS011;41743;43.012;-0.110;2022-07-23T08:59:10;0.30;;;0.30;;
55813;SDS011;41743;43.012;-0.110;2022-07-23T09:01:38;0.20;;;0.20;;
55813;SDS011;41743;43.012;-0.110;2022-07-23T09:04:04;0.40;;;0.30;;
